sensor_id;sensor_type;location;lat;lon;timestamp;P1;durP1;ratioP1;P2;durP2;ratioP2
26080;SDS011;13991;51.174;4.438;2023-06-22T00:02:16;8.63;;;2.60;;
26080;SDS011;13991;51.174;4.438;2023-06-22T00:04:43;4.57;;;2.50;;
26080;SDS011;13991;51.174;4.438;2023-06-22T00:07:09;11.93;;;2.90;;
26080;SDS011;13991;51.174;4.438;2023-06-22T00:09:35;6.70;;;3.03;;
26080;SDS011;13991;51.174;4.438;2023-06-22T00:12:01;5.77;;;2.90;;
26080;SDS011;13991;51.174;4.438;2023-06-22T00:14:27;7.77;;;2.60;;
26080;SDS011;13991;51.174;4.438;2023-06-22T00:16:52;7.43;;;2.27;;
26080;SDS011;13991;51.174;4.438;2023-06-22T00:19:24;6.30;;;2.67;;
26080;SDS011;13991;51.174;4.438;2023-06-22T00:21:50;9.07;;;2.83;;
26080;SDS011;13991;51.174;4.438;2023-06-22T00:24:19;7.73;;;2.57;;
26080;SDS011;13991;51.174;4.438;2023-06-22T00:26:46;9.10;;;2.67;;
26080;SDS011;13991;51.174;4.438;2023-06-22T00:29:13;9.43;;;3.07;;
26080;SDS011;13991;51.174;4.438;2023-06-22T00:31:38;6.93;;;1.93;;
26080;SDS011;13991;51.174;4.438;2023-06-22T00:34:04;6.70;;;2.23;;
26080;SDS011;13991;51.174;4.438;2023-06-22T00:36:31;7.50;;;2.53;;
26080;SDS011;13991;51.174;4.438;2023-06-22T00:38:57;5.53;;;2.27;;
26080;SDS011;13991;51.174;4.438;2023-06-22T00:41:23;8.57;;;2.40;;
26080;SDS011;13991;51.174;4.438;2023-06-22T00:43:49;8.67;;;2.80;;
26080;SDS011;13991;51.174;4.438;2023-06-22T00:46:15;6.57;;;3.07;;
26080;SDS011;13991;51.174;4.438;2023-06-22T00:48:41;7.50;;;2.80;;
26080;SDS011;13991;51.174;4.438;2023-06-22T00:51:08;7.50;;;2.27;;
26080;SDS011;13991;51.174;4.438;2023-06-22T00:53:35;8.37;;;2.50;;
26080;SDS011;13991;51.174;4.438;2023-06-22T00:56:02;10.23;;;2.60;;
26080;SDS011;13991;51.174;4.438;2023-06-22T00:58:28;8.83;;;2.80;;
26080;SDS011;13991;51.174;4.438;2023-06-22T01:00:55;5.67;;;2.77;;
26080;SDS011;13991;51.174;4.438;2023-06-22T01:03:21;8.70;;;3.13;;
26080;SDS011;13991;51.174;4.438;2023-06-22T01:05:47;9.63;;;3.23;;
26080;SDS011;13991;51.174;4.438;2023-06-22T01:16:40;6.17;;;3.33;;
26080;SDS011;13991;51.174;4.438;2023-06-22T01:22:01;9.63;;;3.03;;
26080;SDS011;13991;51.174;4.438;2023-06-22T01:24:32;4.73;;;2.93;;
26080;SDS011;13991;51.174;4.438;2023-06-22T01:29:39;12.30;;;3.17;;
26080;SDS011;13991;51.174;4.438;2023-06-22T01:32:08;8.73;;;3.67;;
26080;SDS011;13991;51.174;4.438;2023-06-22T01:34:36;12.03;;;3.77;;
26080;SDS011;13991;51.174;4.438;2023-06-22T01:37:05;8.43;;;3.50;;
26080;SDS011;13991;51.174;4.438;2023-06-22T01:39:31;9.40;;;3.37;;
26080;SDS011;13991;51.174;4.438;2023-06-22T01:41:57;8.20;;;3.27;;
26080;SDS011;13991;51.174;4.438;2023-06-22T01:44:24;12.37;;;3.57;;
26080;SDS011;13991;51.174;4.438;2023-06-22T01:46:51;10.77;;;4.17;;
26080;SDS011;13991;51.174;4.438;2023-06-22T01:49:17;9.97;;;3.47;;
26080;SDS011;13991;51.174;4.438;2023-06-22T01:51:43;7.97;;;3.93;;
26080;SDS011;13991;51.174;4.438;2023-06-22T01:54:09;11.77;;;3.97;;
26080;SDS011;13991;51.174;4.438;2023-06-22T01:56:35;5.23;;;3.17;;
26080;SDS011;13991;51.174;4.438;2023-06-22T01:59:09;12.27;;;4.40;;
26080;SDS011;13991;51.174;4.438;2023-06-22T02:02:02;6.03;;;3.50;;
26080;SDS011;13991;51.174;4.438;2023-06-22T02:05:03;9.07;;;3.57;;
26080;SDS011;13991;51.174;4.438;2023-06-22T02:07:23;9.23;;;3.57;;
26080;SDS011;13991;51.174;4.438;2023-06-22T02:09:57;7.53;;;3.67;;
26080;SDS011;13991;51.174;4.438;2023-06-22T02:12:24;7.90;;;3.70;;
26080;SDS011;13991;51.174;4.438;2023-06-22T02:14:52;9.87;;;4.30;;
26080;SDS011;13991;51.174;4.438;2023-06-22T02:17:18;6.90;;;4.30;;
26080;SDS011;13991;51.174;4.438;2023-06-22T02:19:44;9.47;;;4.00;;
26080;SDS011;13991;51.174;4.438;2023-06-22T02:22:10;9.33;;;4.50;;
26080;SDS011;13991;51.174;4.438;2023-06-22T02:24:37;9.47;;;4.07;;
26080;SDS011;13991;51.174;4.438;2023-06-22T02:27:03;9.63;;;4.33;;
26080;SDS011;13991;51.174;4.438;2023-06-22T02:29:31;11.37;;;5.07;;
26080;SDS011;13991;51.174;4.438;2023-06-22T02:31:56;12.27;;;4.10;;
26080;SDS011;13991;51.174;4.438;2023-06-22T02:34:22;10.97;;;4.67;;
26080;SDS011;13991;51.174;4.438;2023-06-22T02:36:48;13.27;;;4.27;;
26080;SDS011;13991;51.174;4.438;2023-06-22T02:39:19;10.93;;;4.33;;
26080;SDS011;13991;51.174;4.438;2023-06-22T02:41:47;7.87;;;4.43;;
26080;SDS011;13991;51.174;4.438;2023-06-22T02:44:13;8.53;;;4.57;;
26080;SDS011;13991;51.174;4.438;2023-06-22T02:46:38;7.27;;;3.97;;
26080;SDS011;13991;51.174;4.438;2023-06-22T02:49:04;9.07;;;5.40;;
26080;SDS011;13991;51.174;4.438;2023-06-22T02:51:32;8.20;;;4.80;;
26080;SDS011;13991;51.174;4.438;2023-06-22T02:54:01;10.43;;;4.60;;
26080;SDS011;13991;51.174;4.438;2023-06-22T02:56:28;8.37;;;4.37;;
26080;SDS011;13991;51.174;4.438;2023-06-22T02:58:55;9.77;;;5.27;;
26080;SDS011;13991;51.174;4.438;2023-06-22T03:01:25;12.10;;;5.50;;
26080;SDS011;13991;51.174;4.438;2023-06-22T03:03:55;10.80;;;5.33;;
26080;SDS011;13991;51.174;4.438;2023-06-22T03:06:21;12.27;;;6.43;;
26080;SDS011;13991;51.174;4.438;2023-06-22T03:08:48;9.73;;;6.03;;
26080;SDS011;13991;51.174;4.438;2023-06-22T03:11:16;14.40;;;6.40;;
26080;SDS011;13991;51.174;4.438;2023-06-22T03:13:42;14.40;;;6.27;;
26080;SDS011;13991;51.174;4.438;2023-06-22T03:16:08;11.98;;;6.90;;
26080;SDS011;13991;51.174;4.438;2023-06-22T03:18:34;13.20;;;6.30;;
26080;SDS011;13991;51.174;4.438;2023-06-22T03:20:59;17.03;;;7.43;;
26080;SDS011;13991;51.174;4.438;2023-06-22T03:23:27;13.83;;;7.43;;
26080;SDS011;13991;51.174;4.438;2023-06-22T03:25:53;16.40;;;7.53;;
26080;SDS011;13991;51.174;4.438;2023-06-22T03:28:20;12.90;;;7.57;;
26080;SDS011;13991;51.174;4.438;2023-06-22T03:30:46;16.50;;;7.57;;
26080;SDS011;13991;51.174;4.438;2023-06-22T03:33:12;18.33;;;8.00;;
26080;SDS011;13991;51.174;4.438;2023-06-22T03:35:38;20.83;;;9.13;;
26080;SDS011;13991;51.174;4.438;2023-06-22T03:38:03;18.93;;;8.17;;
26080;SDS011;13991;51.174;4.438;2023-06-22T03:40:29;17.30;;;8.33;;
26080;SDS011;13991;51.174;4.438;2023-06-22T03:42:55;20.13;;;10.17;;
26080;SDS011;13991;51.174;4.438;2023-06-22T03:45:21;24.03;;;9.40;;
26080;SDS011;13991;51.174;4.438;2023-06-22T03:47:47;18.03;;;9.27;;
26080;SDS011;13991;51.174;4.438;2023-06-22T03:50:12;15.43;;;9.03;;
26080;SDS011;13991;51.174;4.438;2023-06-22T03:52:39;18.23;;;8.47;;
26080;SDS011;13991;51.174;4.438;2023-06-22T03:55:06;15.90;;;8.80;;
26080;SDS011;13991;51.174;4.438;2023-06-22T03:57:32;17.33;;;10.07;;
26080;SDS011;13991;51.174;4.438;2023-06-22T03:59:58;21.07;;;9.73;;
26080;SDS011;13991;51.174;4.438;2023-06-22T04:02:24;17.83;;;8.63;;
26080;SDS011;13991;51.174;4.438;2023-06-22T04:04:50;14.27;;;8.43;;
26080;SDS011;13991;51.174;4.438;2023-06-22T04:07:16;20.70;;;9.33;;
26080;SDS011;13991;51.174;4.438;2023-06-22T04:09:43;25.87;;;10.60;;
26080;SDS011;13991;51.174;4.438;2023-06-22T04:12:08;21.13;;;11.50;;
26080;SDS011;13991;51.174;4.438;2023-06-22T04:14:34;17.10;;;9.80;;
26080;SDS011;13991;51.174;4.438;2023-06-22T04:17:00;19.83;;;10.27;;
26080;SDS011;13991;51.174;4.438;2023-06-22T04:19:26;22.83;;;10.80;;
26080;SDS011;13991;51.174;4.438;2023-06-22T04:21:52;20.23;;;11.20;;
26080;SDS011;13991;51.174;4.438;2023-06-22T04:24:18;22.67;;;11.30;;
26080;SDS011;13991;51.174;4.438;2023-06-22T04:26:43;22.83;;;11.23;;
26080;SDS011;13991;51.174;4.438;2023-06-22T04:29:10;24.17;;;11.90;;
26080;SDS011;13991;51.174;4.438;2023-06-22T04:31:36;20.07;;;11.97;;
26080;SDS011;13991;51.174;4.438;2023-06-22T04:34:03;23.17;;;11.20;;
26080;SDS011;13991;51.174;4.438;2023-06-22T04:36:36;22.53;;;12.03;;
26080;SDS011;13991;51.174;4.438;2023-06-22T04:39:06;26.07;;;11.60;;
26080;SDS011;13991;51.174;4.438;2023-06-22T04:41:34;24.23;;;12.53;;
26080;SDS011;13991;51.174;4.438;2023-06-22T04:44:11;27.53;;;12.03;;
26080;SDS011;13991;51.174;4.438;2023-06-22T04:46:49;22.13;;;12.17;;
26080;SDS011;13991;51.174;4.438;2023-06-22T04:49:19;25.93;;;11.97;;
26080;SDS011;13991;51.174;4.438;2023-06-22T04:51:47;21.13;;;11.60;;
26080;SDS011;13991;51.174;4.438;2023-06-22T04:54:12;27.77;;;13.30;;
26080;SDS011;13991;51.174;4.438;2023-06-22T04:56:38;30.30;;;14.00;;
26080;SDS011;13991;51.174;4.438;2023-06-22T04:59:06;21.37;;;12.93;;
26080;SDS011;13991;51.174;4.438;2023-06-22T05:01:32;23.40;;;12.40;;
26080;SDS011;13991;51.174;4.438;2023-06-22T05:03:57;31.90;;;12.63;;
26080;SDS011;13991;51.174;4.438;2023-06-22T05:06:26;28.07;;;13.93;;
26080;SDS011;13991;51.174;4.438;2023-06-22T05:08:53;24.83;;;13.93;;
26080;SDS011;13991;51.174;4.438;2023-06-22T05:11:25;25.77;;;14.37;;
26080;SDS011;13991;51.174;4.438;2023-06-22T05:13:56;23.30;;;13.00;;
26080;SDS011;13991;51.174;4.438;2023-06-22T05:16:21;33.90;;;13.80;;
26080;SDS011;13991;51.174;4.438;2023-06-22T05:18:51;22.80;;;13.53;;
26080;SDS011;13991;51.174;4.438;2023-06-22T05:21:25;23.33;;;13.80;;
26080;SDS011;13991;51.174;4.438;2023-06-22T05:23:55;26.30;;;14.57;;
26080;SDS011;13991;51.174;4.438;2023-06-22T05:26:25;30.63;;;13.87;;
26080;SDS011;13991;51.174;4.438;2023-06-22T05:28:51;29.50;;;13.60;;
26080;SDS011;13991;51.174;4.438;2023-06-22T05:31:18;31.80;;;15.03;;
26080;SDS011;13991;51.174;4.438;2023-06-22T05:33:47;35.70;;;14.17;;
26080;SDS011;13991;51.174;4.438;2023-06-22T05:36:14;27.47;;;15.30;;
26080;SDS011;13991;51.174;4.438;2023-06-22T05:38:40;26.17;;;13.67;;
26080;SDS011;13991;51.174;4.438;2023-06-22T05:41:07;27.87;;;13.77;;
26080;SDS011;13991;51.174;4.438;2023-06-22T05:43:33;29.97;;;15.40;;
26080;SDS011;13991;51.174;4.438;2023-06-22T05:45:59;25.73;;;13.90;;
26080;SDS011;13991;51.174;4.438;2023-06-22T05:48:26;29.77;;;14.67;;
26080;SDS011;13991;51.174;4.438;2023-06-22T05:50:52;28.23;;;13.67;;
26080;SDS011;13991;51.174;4.438;2023-06-22T05:53:18;25.40;;;14.53;;
26080;SDS011;13991;51.174;4.438;2023-06-22T05:55:46;35.67;;;13.97;;
26080;SDS011;13991;51.174;4.438;2023-06-22T05:58:12;29.83;;;14.13;;
26080;SDS011;13991;51.174;4.438;2023-06-22T06:00:38;36.67;;;14.67;;
26080;SDS011;13991;51.174;4.438;2023-06-22T06:03:04;31.07;;;13.60;;
26080;SDS011;13991;51.174;4.438;2023-06-22T06:05:31;42.10;;;14.80;;
26080;SDS011;13991;51.174;4.438;2023-06-22T06:07:57;29.63;;;14.13;;
26080;SDS011;13991;51.174;4.438;2023-06-22T06:10:24;34.40;;;13.40;;
26080;SDS011;13991;51.174;4.438;2023-06-22T06:12:50;27.97;;;13.63;;
26080;SDS011;13991;51.174;4.438;2023-06-22T06:15:16;34.10;;;14.03;;
26080;SDS011;13991;51.174;4.438;2023-06-22T06:17:49;28.50;;;14.60;;
26080;SDS011;13991;51.174;4.438;2023-06-22T06:20:17;27.50;;;14.37;;
26080;SDS011;13991;51.174;4.438;2023-06-22T06:22:43;34.80;;;14.60;;
26080;SDS011;13991;51.174;4.438;2023-06-22T06:25:09;33.17;;;14.30;;
26080;SDS011;13991;51.174;4.438;2023-06-22T06:27:40;25.97;;;15.07;;
26080;SDS011;13991;51.174;4.438;2023-06-22T06:30:10;24.07;;;14.80;;
26080;SDS011;13991;51.174;4.438;2023-06-22T06:32:37;31.17;;;15.57;;
26080;SDS011;13991;51.174;4.438;2023-06-22T06:35:04;27.13;;;14.30;;
26080;SDS011;13991;51.174;4.438;2023-06-22T06:37:31;26.30;;;14.90;;
26080;SDS011;13991;51.174;4.438;2023-06-22T06:39:57;27.67;;;14.87;;
26080;SDS011;13991;51.174;4.438;2023-06-22T06:42:22;31.93;;;14.97;;
26080;SDS011;13991;51.174;4.438;2023-06-22T06:44:49;28.53;;;15.53;;
26080;SDS011;13991;51.174;4.438;2023-06-22T06:47:15;29.47;;;16.03;;
26080;SDS011;13991;51.174;4.438;2023-06-22T06:53:04;31.13;;;15.57;;
26080;SDS011;13991;51.174;4.438;2023-06-22T06:55:30;25.90;;;13.47;;
26080;SDS011;13991;51.174;4.438;2023-06-22T06:57:58;27.77;;;15.97;;
26080;SDS011;13991;51.174;4.438;2023-06-22T07:00:24;31.33;;;15.37;;
26080;SDS011;13991;51.174;4.438;2023-06-22T07:02:51;28.73;;;15.27;;
26080;SDS011;13991;51.174;4.438;2023-06-22T07:05:17;34.87;;;15.63;;
26080;SDS011;13991;51.174;4.438;2023-06-22T07:07:43;48.30;;;15.50;;
26080;SDS011;13991;51.174;4.438;2023-06-22T07:10:09;33.83;;;15.00;;
26080;SDS011;13991;51.174;4.438;2023-06-22T07:12:35;34.90;;;14.67;;
26080;SDS011;13991;51.174;4.438;2023-06-22T07:15:04;41.20;;;15.23;;
26080;SDS011;13991;51.174;4.438;2023-06-22T07:17:38;25.93;;;15.27;;
26080;SDS011;13991;51.174;4.438;2023-06-22T07:20:06;30.70;;;15.00;;
26080;SDS011;13991;51.174;4.438;2023-06-22T07:22:37;24.03;;;15.00;;
26080;SDS011;13991;51.174;4.438;2023-06-22T07:25:03;27.50;;;15.37;;
26080;SDS011;13991;51.174;4.438;2023-06-22T07:27:36;32.47;;;16.17;;
26080;SDS011;13991;51.174;4.438;2023-06-22T07:30:08;26.40;;;15.10;;
26080;SDS011;13991;51.174;4.438;2023-06-22T07:32:40;24.37;;;13.53;;
26080;SDS011;13991;51.174;4.438;2023-06-22T07:35:07;27.50;;;15.00;;
26080;SDS011;13991;51.174;4.438;2023-06-22T07:37:33;22.60;;;14.97;;
26080;SDS011;13991;51.174;4.438;2023-06-22T07:40:00;27.67;;;14.00;;
26080;SDS011;13991;51.174;4.438;2023-06-22T07:42:31;25.87;;;14.70;;
26080;SDS011;13991;51.174;4.438;2023-06-22T07:44:58;31.07;;;14.57;;
26080;SDS011;13991;51.174;4.438;2023-06-22T07:47:23;27.47;;;14.33;;
26080;SDS011;13991;51.174;4.438;2023-06-22T07:49:55;27.37;;;14.40;;
26080;SDS011;13991;51.174;4.438;2023-06-22T07:52:23;33.60;;;14.63;;
26080;SDS011;13991;51.174;4.438;2023-06-22T07:54:50;26.40;;;14.27;;
26080;SDS011;13991;51.174;4.438;2023-06-22T07:57:16;36.13;;;14.53;;
26080;SDS011;13991;51.174;4.438;2023-06-22T07:59:42;25.83;;;13.90;;
26080;SDS011;13991;51.174;4.438;2023-06-22T08:02:07;24.20;;;13.10;;
26080;SDS011;13991;51.174;4.438;2023-06-22T08:04:34;24.17;;;14.80;;
26080;SDS011;13991;51.174;4.438;2023-06-22T08:07:00;36.90;;;14.10;;
26080;SDS011;13991;51.174;4.438;2023-06-22T08:09:30;24.00;;;14.03;;
26080;SDS011;13991;51.174;4.438;2023-06-22T08:11:57;26.20;;;13.10;;
26080;SDS011;13991;51.174;4.438;2023-06-22T08:14:23;30.13;;;14.37;;
26080;SDS011;13991;51.174;4.438;2023-06-22T08:16:52;20.27;;;12.20;;
26080;SDS011;13991;51.174;4.438;2023-06-22T08:19:18;28.13;;;13.97;;
26080;SDS011;13991;51.174;4.438;2023-06-22T08:21:44;23.67;;;12.77;;
26080;SDS011;13991;51.174;4.438;2023-06-22T08:24:10;24.30;;;13.03;;
26080;SDS011;13991;51.174;4.438;2023-06-22T08:26:35;27.90;;;13.50;;
26080;SDS011;13991;51.174;4.438;2023-06-22T08:29:03;25.73;;;14.17;;
26080;SDS011;13991;51.174;4.438;2023-06-22T08:31:29;25.50;;;13.37;;
26080;SDS011;13991;51.174;4.438;2023-06-22T08:33:55;26.43;;;13.43;;
26080;SDS011;13991;51.174;4.438;2023-06-22T08:36:21;24.57;;;13.33;;
26080;SDS011;13991;51.174;4.438;2023-06-22T08:38:47;29.33;;;12.10;;
26080;SDS011;13991;51.174;4.438;2023-06-22T08:41:16;30.00;;;14.10;;
26080;SDS011;13991;51.174;4.438;2023-06-22T08:43:42;33.13;;;13.70;;
26080;SDS011;13991;51.174;4.438;2023-06-22T08:46:11;26.57;;;14.80;;
26080;SDS011;13991;51.174;4.438;2023-06-22T08:48:37;27.97;;;14.67;;
26080;SDS011;13991;51.174;4.438;2023-06-22T08:51:04;34.17;;;15.27;;
26080;SDS011;13991;51.174;4.438;2023-06-22T08:53:29;37.83;;;15.63;;
26080;SDS011;13991;51.174;4.438;2023-06-22T08:55:55;32.93;;;15.60;;
26080;SDS011;13991;51.174;4.438;2023-06-22T08:58:21;34.63;;;15.33;;
26080;SDS011;13991;51.174;4.438;2023-06-22T09:00:47;126.23;;;20.73;;
26080;SDS011;13991;51.174;4.438;2023-06-22T09:03:13;436.87;;;45.43;;
26080;SDS011;13991;51.174;4.438;2023-06-22T09:05:39;126.40;;;22.63;;
26080;SDS011;13991;51.174;4.438;2023-06-22T09:08:04;151.67;;;22.13;;
26080;SDS011;13991;51.174;4.438;2023-06-22T09:10:30;93.43;;;19.77;;
26080;SDS011;13991;51.174;4.438;2023-06-22T09:12:56;41.93;;;15.97;;
26080;SDS011;13991;51.174;4.438;2023-06-22T09:15:22;34.57;;;16.20;;
26080;SDS011;13991;51.174;4.438;2023-06-22T09:17:48;24.20;;;15.83;;
26080;SDS011;13991;51.174;4.438;2023-06-22T09:20:14;38.80;;;17.13;;
26080;SDS011;13991;51.174;4.438;2023-06-22T09:22:40;25.97;;;16.07;;
26080;SDS011;13991;51.174;4.438;2023-06-22T09:25:06;30.83;;;16.27;;
26080;SDS011;13991;51.174;4.438;2023-06-22T09:27:32;40.57;;;16.67;;
26080;SDS011;13991;51.174;4.438;2023-06-22T09:29:58;32.33;;;16.47;;
26080;SDS011;13991;51.174;4.438;2023-06-22T09:32:24;31.00;;;15.63;;
26080;SDS011;13991;51.174;4.438;2023-06-22T09:34:51;29.47;;;15.70;;
26080;SDS011;13991;51.174;4.438;2023-06-22T09:37:16;31.67;;;16.93;;
26080;SDS011;13991;51.174;4.438;2023-06-22T09:39:42;41.50;;;15.00;;
26080;SDS011;13991;51.174;4.438;2023-06-22T09:42:08;31.37;;;15.73;;
26080;SDS011;13991;51.174;4.438;2023-06-22T09:44:34;27.30;;;15.53;;
26080;SDS011;13991;51.174;4.438;2023-06-22T09:46:59;31.70;;;16.53;;
26080;SDS011;13991;51.174;4.438;2023-06-22T09:49:25;25.23;;;16.03;;
26080;SDS011;13991;51.174;4.438;2023-06-22T09:51:51;27.83;;;16.63;;
26080;SDS011;13991;51.174;4.438;2023-06-22T09:54:17;27.27;;;16.70;;
26080;SDS011;13991;51.174;4.438;2023-06-22T09:56:43;26.60;;;16.03;;
26080;SDS011;13991;51.174;4.438;2023-06-22T09:59:09;28.30;;;16.50;;
26080;SDS011;13991;51.174;4.438;2023-06-22T10:01:34;35.93;;;16.50;;
26080;SDS011;13991;51.174;4.438;2023-06-22T10:04:01;32.40;;;16.43;;
26080;SDS011;13991;51.174;4.438;2023-06-22T10:06:27;29.30;;;16.07;;
26080;SDS011;13991;51.174;4.438;2023-06-22T10:08:53;34.30;;;16.87;;
26080;SDS011;13991;51.174;4.438;2023-06-22T10:11:19;82.77;;;19.30;;
26080;SDS011;13991;51.174;4.438;2023-06-22T10:13:44;65.57;;;19.53;;
26080;SDS011;13991;51.174;4.438;2023-06-22T10:16:10;73.57;;;17.77;;
26080;SDS011;13991;51.174;4.438;2023-06-22T10:18:36;79.73;;;20.30;;
26080;SDS011;13991;51.174;4.438;2023-06-22T10:21:01;46.13;;;17.37;;
26080;SDS011;13991;51.174;4.438;2023-06-22T10:23:27;58.17;;;18.57;;
26080;SDS011;13991;51.174;4.438;2023-06-22T10:25:53;40.27;;;17.60;;
26080;SDS011;13991;51.174;4.438;2023-06-22T10:28:18;40.33;;;18.30;;
26080;SDS011;13991;51.174;4.438;2023-06-22T10:30:44;40.00;;;17.83;;
26080;SDS011;13991;51.174;4.438;2023-06-22T10:33:10;54.07;;;17.53;;
26080;SDS011;13991;51.174;4.438;2023-06-22T10:35:37;32.60;;;17.73;;
26080;SDS011;13991;51.174;4.438;2023-06-22T10:38:03;28.63;;;16.70;;
26080;SDS011;13991;51.174;4.438;2023-06-22T10:40:29;37.93;;;18.30;;
26080;SDS011;13991;51.174;4.438;2023-06-22T10:42:55;46.40;;;19.37;;
26080;SDS011;13991;51.174;4.438;2023-06-22T10:45:21;43.50;;;19.70;;
26080;SDS011;13991;51.174;4.438;2023-06-22T10:47:47;41.50;;;20.33;;
26080;SDS011;13991;51.174;4.438;2023-06-22T10:50:12;36.53;;;19.33;;
26080;SDS011;13991;51.174;4.438;2023-06-22T10:52:38;41.47;;;20.40;;
26080;SDS011;13991;51.174;4.438;2023-06-22T10:55:05;37.03;;;21.27;;
26080;SDS011;13991;51.174;4.438;2023-06-22T10:57:31;43.33;;;21.70;;
26080;SDS011;13991;51.174;4.438;2023-06-22T10:59:56;40.87;;;20.53;;
26080;SDS011;13991;51.174;4.438;2023-06-22T11:02:23;39.10;;;20.77;;
26080;SDS011;13991;51.174;4.438;2023-06-22T11:04:49;34.43;;;18.70;;
26080;SDS011;13991;51.174;4.438;2023-06-22T11:07:15;37.17;;;18.43;;
26080;SDS011;13991;51.174;4.438;2023-06-22T11:09:40;44.00;;;19.80;;
26080;SDS011;13991;51.174;4.438;2023-06-22T11:12:08;34.30;;;18.37;;
26080;SDS011;13991;51.174;4.438;2023-06-22T11:14:34;47.13;;;19.50;;
26080;SDS011;13991;51.174;4.438;2023-06-22T11:17:00;29.57;;;16.63;;
26080;SDS011;13991;51.174;4.438;2023-06-22T11:19:25;33.53;;;17.30;;
26080;SDS011;13991;51.174;4.438;2023-06-22T11:21:51;33.73;;;16.73;;
26080;SDS011;13991;51.174;4.438;2023-06-22T11:24:17;36.30;;;17.83;;
26080;SDS011;13991;51.174;4.438;2023-06-22T11:26:43;30.97;;;17.13;;
26080;SDS011;13991;51.174;4.438;2023-06-22T11:29:09;31.40;;;17.33;;
26080;SDS011;13991;51.174;4.438;2023-06-22T11:31:35;31.77;;;17.40;;
26080;SDS011;13991;51.174;4.438;2023-06-22T11:34:01;36.53;;;17.53;;
26080;SDS011;13991;51.174;4.438;2023-06-22T11:36:27;31.10;;;17.80;;
26080;SDS011;13991;51.174;4.438;2023-06-22T11:38:54;35.23;;;15.90;;
26080;SDS011;13991;51.174;4.438;2023-06-22T11:41:19;28.77;;;16.97;;
26080;SDS011;13991;51.174;4.438;2023-06-22T11:43:45;31.03;;;17.53;;
26080;SDS011;13991;51.174;4.438;2023-06-22T11:46:11;34.90;;;18.00;;
26080;SDS011;13991;51.174;4.438;2023-06-22T11:48:36;32.07;;;16.97;;
26080;SDS011;13991;51.174;4.438;2023-06-22T11:51:02;30.87;;;18.00;;
26080;SDS011;13991;51.174;4.438;2023-06-22T11:53:29;34.33;;;18.70;;
26080;SDS011;13991;51.174;4.438;2023-06-22T11:55:54;39.70;;;19.10;;
26080;SDS011;13991;51.174;4.438;2023-06-22T11:58:21;41.50;;;19.83;;
26080;SDS011;13991;51.174;4.438;2023-06-22T12:00:47;31.80;;;19.13;;
26080;SDS011;13991;51.174;4.438;2023-06-22T12:03:13;35.90;;;19.00;;
26080;SDS011;13991;51.174;4.438;2023-06-22T12:05:40;44.90;;;20.40;;
26080;SDS011;13991;51.174;4.438;2023-06-22T12:08:06;35.67;;;19.43;;
26080;SDS011;13991;51.174;4.438;2023-06-22T12:10:31;34.50;;;18.57;;
26080;SDS011;13991;51.174;4.438;2023-06-22T12:12:57;35.10;;;19.67;;
26080;SDS011;13991;51.174;4.438;2023-06-22T12:15:24;37.37;;;20.70;;
26080;SDS011;13991;51.174;4.438;2023-06-22T12:17:51;36.97;;;19.67;;
26080;SDS011;13991;51.174;4.438;2023-06-22T12:20:17;31.87;;;18.20;;
26080;SDS011;13991;51.174;4.438;2023-06-22T12:22:43;29.53;;;19.17;;
26080;SDS011;13991;51.174;4.438;2023-06-22T12:25:09;31.57;;;18.90;;
26080;SDS011;13991;51.174;4.438;2023-06-22T12:27:35;32.67;;;17.23;;
26080;SDS011;13991;51.174;4.438;2023-06-22T12:30:02;25.20;;;16.17;;
26080;SDS011;13991;51.174;4.438;2023-06-22T12:32:28;31.50;;;18.33;;
26080;SDS011;13991;51.174;4.438;2023-06-22T12:34:54;33.30;;;17.70;;
26080;SDS011;13991;51.174;4.438;2023-06-22T12:37:20;29.42;;;18.48;;
26080;SDS011;13991;51.174;4.438;2023-06-22T12:39:46;31.97;;;16.60;;
26080;SDS011;13991;51.174;4.438;2023-06-22T13:00:54;39.37;;;20.07;;
26080;SDS011;13991;51.174;4.438;2023-06-22T13:06:02;35.80;;;19.50;;
26080;SDS011;13991;51.174;4.438;2023-06-22T13:08:36;45.00;;;19.53;;
26080;SDS011;13991;51.174;4.438;2023-06-22T13:11:14;33.30;;;18.43;;
26080;SDS011;13991;51.174;4.438;2023-06-22T13:13:49;39.23;;;19.60;;
26080;SDS011;13991;51.174;4.438;2023-06-22T13:16:17;33.10;;;18.80;;
26080;SDS011;13991;51.174;4.438;2023-06-22T13:18:45;34.47;;;20.80;;
26080;SDS011;13991;51.174;4.438;2023-06-22T13:21:23;41.00;;;21.00;;
26080;SDS011;13991;51.174;4.438;2023-06-22T13:23:49;42.73;;;20.73;;
26080;SDS011;13991;51.174;4.438;2023-06-22T13:26:15;35.33;;;21.33;;
26080;SDS011;13991;51.174;4.438;2023-06-22T13:28:43;35.03;;;20.20;;
26080;SDS011;13991;51.174;4.438;2023-06-22T13:31:09;38.27;;;20.97;;
26080;SDS011;13991;51.174;4.438;2023-06-22T13:33:35;35.93;;;19.90;;
26080;SDS011;13991;51.174;4.438;2023-06-22T13:36:02;40.47;;;21.07;;
26080;SDS011;13991;51.174;4.438;2023-06-22T13:38:31;39.43;;;21.67;;
26080;SDS011;13991;51.174;4.438;2023-06-22T13:40:57;41.67;;;21.47;;
26080;SDS011;13991;51.174;4.438;2023-06-22T13:43:24;36.47;;;20.53;;
26080;SDS011;13991;51.174;4.438;2023-06-22T13:45:51;45.70;;;24.52;;
26080;SDS011;13991;51.174;4.438;2023-06-22T13:48:17;49.20;;;24.13;;
26080;SDS011;13991;51.174;4.438;2023-06-22T13:50:43;37.47;;;21.43;;
26080;SDS011;13991;51.174;4.438;2023-06-22T13:53:09;41.37;;;21.97;;
26080;SDS011;13991;51.174;4.438;2023-06-22T13:55:34;41.97;;;21.60;;
26080;SDS011;13991;51.174;4.438;2023-06-22T13:58:00;54.07;;;22.67;;
26080;SDS011;13991;51.174;4.438;2023-06-22T14:00:25;33.53;;;20.30;;
26080;SDS011;13991;51.174;4.438;2023-06-22T14:02:52;38.40;;;22.70;;
26080;SDS011;13991;51.174;4.438;2023-06-22T14:05:19;41.70;;;23.87;;
26080;SDS011;13991;51.174;4.438;2023-06-22T14:07:45;48.43;;;24.57;;
26080;SDS011;13991;51.174;4.438;2023-06-22T14:10:10;40.13;;;23.20;;
26080;SDS011;13991;51.174;4.438;2023-06-22T14:12:36;41.43;;;24.30;;
26080;SDS011;13991;51.174;4.438;2023-06-22T14:15:02;47.73;;;24.67;;
26080;SDS011;13991;51.174;4.438;2023-06-22T14:17:29;51.70;;;25.93;;
26080;SDS011;13991;51.174;4.438;2023-06-22T14:19:54;44.30;;;25.77;;
26080;SDS011;13991;51.174;4.438;2023-06-22T14:22:21;42.53;;;25.67;;
26080;SDS011;13991;51.174;4.438;2023-06-22T14:24:47;42.20;;;25.47;;
26080;SDS011;13991;51.174;4.438;2023-06-22T14:27:13;46.00;;;25.67;;
26080;SDS011;13991;51.174;4.438;2023-06-22T14:29:39;44.20;;;23.03;;
26080;SDS011;13991;51.174;4.438;2023-06-22T14:32:05;40.13;;;23.27;;
26080;SDS011;13991;51.174;4.438;2023-06-22T14:34:32;38.13;;;23.00;;
26080;SDS011;13991;51.174;4.438;2023-06-22T14:37:00;39.83;;;22.50;;
26080;SDS011;13991;51.174;4.438;2023-06-22T14:39:27;38.27;;;22.57;;
26080;SDS011;13991;51.174;4.438;2023-06-22T14:41:52;37.30;;;22.47;;
26080;SDS011;13991;51.174;4.438;2023-06-22T14:44:18;39.70;;;22.97;;
26080;SDS011;13991;51.174;4.438;2023-06-22T14:46:44;42.60;;;23.00;;
26080;SDS011;13991;51.174;4.438;2023-06-22T14:49:09;44.30;;;22.93;;
26080;SDS011;13991;51.174;4.438;2023-06-22T14:51:35;42.13;;;23.90;;
26080;SDS011;13991;51.174;4.438;2023-06-22T14:54:01;42.33;;;22.60;;
26080;SDS011;13991;51.174;4.438;2023-06-22T14:56:27;41.17;;;23.23;;
26080;SDS011;13991;51.174;4.438;2023-06-22T14:58:53;38.43;;;23.37;;
26080;SDS011;13991;51.174;4.438;2023-06-22T15:01:18;43.67;;;24.10;;
26080;SDS011;13991;51.174;4.438;2023-06-22T15:03:44;39.67;;;23.03;;